METAR Data
IDs: Format: Raw Decoded Include TAF

Data at: 0910 UTC 18 Jan 2019

PASD 180856Z AUTO 34015KT 10SM -RA OVC027 03/01 A2959 RMK AO2 SLP024 6//// T00330011 400390011 53009 PNO $
PASD 180756Z AUTO 34016KT 10SM -RA OVC027 04/01 A2958 RMK AO2 RAB0657 SLP020 T00390011 PNO $
PASD 180656Z AUTO 34013KT 10SM OVC027 04/02 A2958 RMK AO2 RAB10E40 SLP018 T00390017 PNO $
PASD 180556Z AUTO 34017KT 10SM OVC023 03/01 A2957 RMK AO2 RAE44 SLP015 6//// T00330011 10033 20017 51000 PNO $
PASD 180356Z 34016G21KT 10SM -RASN BKN020 OVC028 03/01 A2957 RMK AO2 SNB33 SLP017 LAST T00280006 PNO $
PASD 180256Z 34017KT 10SM -RA FEW022 SCT028 OVC044 03/00 A2957 RMK AO2 PK WND 34026/0239 RAB56 SLP015 6//// T00280000 56009 PNO $
PASD 180156Z 32016KT 10SM FEW021 SCT035 OVC055 02/M01 A2958 RMK AO2 RAB34E56 SLP018 T00221006 PNO $
PASD 180056Z 33016KT 10SM FEW021 SCT035 OVC065 02/M01 A2958 RMK AO2 SLP018 T00221011 PNO $
PASD 172356Z 31014KT 10SM FEW020 FEW033 BKN050 02/M01 A2959 RMK AO2 SLP023 6//// T00221011 10022 20011 58006 PNO $
PASD 172256Z 32015KT 10SM FEW020 SCT028 BKN037 02/M01 A2960
PASD 172156Z 33015KT 10SM FEW022 SCT029 BKN036 02/00 A2961 RMK AO2 SLP028 T00220000 PNO $
PASD 172056Z 32015KT 10SM FEW021 SCT026 BKN032 02/01 A2961 RMK AO2 SNE06 SLP030 6//// T00220006 51005 PNO $
PASD 172014Z 31013KT 10SM FEW015 SCT023 BKN029 02/01 A2961 RMK AO2 SNE06 PNO $
PASD 171956Z 32012KT 10SM -SN FEW012 SCT018 BKN023 02/01 A2961 RMK AO2 RAE14 SLP028 T00170006 PNO $
PASD 171954Z 32012KT 8SM -SN FEW012 BKN018 OVC023 02/01 A2961 RMK AO2 RAE14 PNO $
PASD 171937Z 32012KT 7SM -SN FEW009 BKN014 OVC018 01/00 A2960 RMK AO2 RAE14 PNO $
PASD 171919Z 34012KT 5SM -SN BR FEW005 BKN013 OVC018 01/00 A2960 RMK AO2 RAE14 PNO $
PASD 171856Z 34012KT 6SM -RASN BR FEW010 BKN016 OVC020 02/01 A2960 RMK AO2 SLP025 VIS N-NE 2 T00170006 PNO $
PASD 171756Z 32012KT 10SM -RASN BKN011 OVC016 02/01 A2957 RMK AO2 SLP017 6//// T00170006 10022 20011 53013 PNO $
PASD 171656Z 34010KT 10SM -RASN OVC011 02/01 A2956 RMK AO2 SLP012 T00170011 PNO $
PASD 171556Z 32013KT 10SM -RASN OVC011 02/01 A2954 RMK AO2 SNB55 SLP006 T00170011 PNO $
PASD 171456Z AUTO 27006KT 10SM -RA OVC005 02/01 A2954 RMK AO2 RAB07UPB16E20 SLP004 6//// T00170011 51016 FZRANO PNO $
PASD 171431Z AUTO 26006KT 10SM -RA BKN005 OVC009 02/01 A2953 RMK AO2 RAB07UPB16E20 FZRANO PNO $
PASD 171423Z AUTO 28006KT 9SM OVC007 02/01 A2953 RMK AO2 RAB07E16UPB16E20 CIG 004V009 FZRANO PNO $
PASD 171356Z AUTO 30006KT 8SM OVC004 02/01 A2952 RMK AO2 RAE03 SLP000 T00170011 FZRANO PNO $
PASD 171242Z AUTO 29007KT 10SM -RA BKN004 OVC018 02/01 A2950 RMK AO2 UPE00RAB00 FZRANO PNO $
PASD 171223Z AUTO 28007KT 4SM -RA BR OVC016 02/01 A2950 RMK AO2 UPE00RAB00 FZRANO PNO $
PASD 171156Z AUTO 30003KT 5SM UP BR SCT005 OVC014 02/01 A2949 RMK AO2 UPE08B52RAB08E52 SLP988 6//// 7//// T00170011 10017 20006 51012 FZRANO PNO $
PASD 171125Z AUTO 29006KT 3SM -RA BR OVC007 02/01 A2948 RMK AO2 UPE08RAB08 CIG 005V010 FZRANO PNO $
PASD 171056Z AUTO 30004KT 8SM UP OVC005 02/01 A2947 RMK AO2 RAE49UPB49 SLP982 T00170006 FZRANO PNO $
PASD 170956Z AUTO 00000KT 10SM -RA OVC005 01/01 A2945 RMK AO2 SLP977 T00110006 FZRANO PNO $
PASD 170856Z AUTO 00000KT 10SM -RA OVC005 01/00 A2944 RMK AO2 SLP970 6//// T00110000 400390006 51026 FZRANO PNO $
PASD 170656Z AUTO 34004KT 5SM UP BR BKN005 OVC012 01/00 A2939 RMK AO2 RAE43UPB43 SLP954 T00060000 FZRANO PNO $
PASD 170633Z AUTO 01005KT 10SM -RA BKN008 OVC014 01/00 A2938 RMK AO2 CIG 008V011 FZRANO PNO $
PASD 170556Z AUTO 02005KT 10SM -RA OVC010 01/00 A2936 RMK AO2 CIG 008V013 SLP944 6//// T00110000 10028 20011 53018 FZRANO PNO $
PASD 170542Z AUTO 02007KT 10SM -RA BKN010 BKN014 OVC021 02/00 A2935 RMK AO2 CIG 008V013 FZRANO PNO $
PASD 170456Z AUTO 33008KT 10SM -RA OVC025 02/00 A2933 RMK AO2 RAE0359B42 SLP936 T00170000 FZRANO PNO $
PASD 170428Z AUTO 35005KT 10SM SCT018 BKN027 OVC039 02/00 A2932 RMK AO2 RAE0359 FZRANO PNO $
PASD 170403Z AUTO 31006KT 10SM OVC036 02/00 A2932 RMK AO2 RAE0359 FZRANO PNO $
PASD 170356Z 30006KT 10SM -RA BKN036 OVC043 02/00 A2931 RMK AO2 SLP929 LAST T00220000 PNO $
PASD 170353Z 30007KT 10SM -RA OVC038 02/00 A2931 RMK AO2 LAST PNO $
PASD 170256Z 31005KT 8SM -RA SCT013 BKN020 OVC028 02/00 A2931 RMK AO2 SLP927 6//// T00170000 53002 PNO $
PASD 170146Z 33012KT 7SM -RA SCT015 BKN022 OVC035 02/00 A2930 RMK AO2 UPB33E45 PNO $
PASD 170145Z 34012KT 7SM -RA SCT015 BKN022 OVC035 02/00 A2930 RMK AO2 UPB33E45 PNO $
PASD 170132Z 32011KT 10SM -RA SCT015 BKN022 OVC035 02/00 A2930 RMK AO2 PNO $
PASD 170056Z 31008KT 10SM -RA SCT015 BKN022 OVC035 02/01 A2930 RMK AO2 SLP924 T00220006 PNO $
PASD 162356Z 33010KT 10SM -RA SCT016 BKN024 OVC034 03/01 A2930 RMK AO2 SLP925 6//// T00280006 10033 20028 56010 PNO $
PASD 162325Z 34013KT 10SM -RA BKN017 BKN024 OVC036 03/01 A2930 RMK AO2 PNO $
PASD 162256Z 34011KT 10SM -RA SCT018 BKN032 OVC037 03/01 A2930 RMK AO2 RAB22 SLP925 T00280006 PNO $
PASD 162155Z 33008KT 10SM SCT018 BKN024 OVC040 03/01 A2931
PASD 162132Z 33009KT 10SM -RA SCT018 BKN029 OVC035 03/01 A2932 RMK AO2 PNO $
PASD 162130Z 32009KT 10SM -RA FEW018 BKN029 OVC035 03/01 A2932 RMK AO2 PNO $